Currently 83°F in Lake Elsinore, California, USA
83°F
103°F / 69°F
3 mph SE
0.00"
Sunday, August 19, 2018 8:08 PM PDT

Lake Elsinore, California Weather Summary
Last 36 Hours

Temperature Winds Hourly Humidity Dewpoint
Time Report Norm Report Norm Max Gusts Precip. Rpt. Norm Rpt. Norm Pressure
1Sun 08:08 PM  83.0°F  81°F  3 mph SE  2 mph  7 mph  0.00"  45%  52%  59°F  61°F  29.91"
Sun 08:00 PM  83.4°F  81°F  2 mph SE  2 mph  7 mph  0.00"  45%  50%  59°F  61°F  29.91"
Sun 07:00 PM  91.0°F  88°F  3 mph S  2 mph  11 mph  0.00"  36%  39%  60°F  59°F  29.89"
Sun 06:00 PM  97.5°F  93°F  2 mph SW  4 mph  10 mph  0.00"  25%  32%  54°F  58°F  29.88"
Sun 05:00 PM  100.3°F  96°F  4 mph W  4 mph  12 mph  0.00"  21%  28%  52°F  57°F  29.87"
Sun 04:00 PM  102.7°F  98°F  3 mph W  4 mph  15 mph  0.00"  17%  27%  48°F  57°F  29.87"
2Sun 03:39 PM  103.3°F  98°F  6 mph NW  4 mph  13 mph  ----  16%  26%  48°F  56°F  29.88"
Sun 03:00 PM  101.4°F  98°F  3 mph S  3 mph  10 mph  0.00"  18%  26%  49°F  56°F  29.89"
Sun 02:00 PM  98.7°F  97°F  calm  2 mph  none  0.00"  19%  26%  48°F  56°F  29.91"
Sun 01:00 PM  96.6°F  95°F  calm  2 mph  none  0.00"  22%  29%  50°F  57°F  29.93"
Sun 12:00 PM  92.5°F  91°F  calm  2 mph  8 mph  0.00"  27%  34%  52°F  58°F  29.96"
Sun 11:00 AM  88.7°F  87°F  3 mph SE  1 mph  6 mph  0.00"  31%  42%  53°F  60°F  29.98"
Sun 10:00 AM  84.0°F  82°F  2 mph S  1 mph  7 mph  0.00"  41%  51%  57°F  61°F  30.00"
Sun 09:00 AM  79.2°F  77°F  2 mph SE  1 mph  5 mph  0.00"  49%  63%  58°F  63°F  30.00"
Sun 08:00 AM  74.3°F  70°F  1 mph SE  1 mph  4 mph  0.00"  61%  77%  59°F  62°F  30.01"
Sun 07:00 AM  69.4°F  64°F  calm  calm  3 mph  0.00"  72%  81%  60°F  58°F  30.00"
3Sun 06:53 AM  69.3°F  64°F  calm  calm  none  ----  71%  81%  59°F  58°F  30.00"
Sun 06:00 AM  69.9°F  64°F  1 mph SE  calm  5 mph  0.00"  69%  80%  59°F  58°F  30.00"
Sun 05:00 AM  70.5°F  65°F  calm  calm  3 mph  0.00"  67%  79%  59°F  58°F  29.98"
Sun 04:00 AM  71.4°F  66°F  calm  calm  4 mph  0.00"  66%  78%  59°F  59°F  29.98"
Sun 03:00 AM  71.9°F  67°F  calm  calm  none  0.00"  66%  76%  59°F  59°F  29.98"
Sun 02:00 AM  73.3°F  68°F  calm  calm  4 mph  0.00"  62%  75%  59°F  60°F  29.99"
Sun 01:00 AM  75.0°F  70°F  1 mph NE  calm  4 mph  0.00"  59%  73%  59°F  60°F  30.00"
Sun 12:00 AM  76.2°F  71°F  calm  1 mph  4 mph  0.00"  57%  71%  59°F  61°F  30.02"
Sat 11:00 PM  77.3°F  73°F  calm  calm  5 mph  0.00"  56%  69%  60°F  61°F  30.02"
Sat 10:00 PM  78.3°F  75°F  1 mph NE  1 mph  7 mph  0.00"  54%  65%  60°F  62°F  30.03"
Sat 09:00 PM  80.9°F  77°F  2 mph E  2 mph  7 mph  0.00"  48%  59%  59°F  61°F  30.02"
Sat 08:00 PM  86.3°F  81°F  1 mph SE  2 mph  9 mph  0.00"  37%  50%  56°F  61°F  30.00"
Sat 07:00 PM  89.7°F  88°F  3 mph SW  2 mph  11 mph  0.00"  33%  39%  56°F  59°F  29.99"
Sat 06:00 PM  95.0°F  92°F  calm  4 mph  15 mph  0.00"  28%  32%  55°F  58°F  29.98"
Sat 05:00 PM  99.1°F  96°F  calm  4 mph  13 mph  0.00"  23%  29%  54°F  57°F  29.98"
Sat 04:00 PM  101.0°F  98°F  calm  4 mph  16 mph  0.00"  21%  27%  53°F  57°F  29.98"
Sat 03:00 PM  101.2°F  98°F  1 mph SE  3 mph  10 mph  0.00"  19%  26%  50°F  56°F  30.00"
Sat 02:00 PM  100.6°F  97°F  4 mph W  2 mph  13 mph  0.00"  21%  27%  52°F  56°F  30.03"
Sat 01:00 PM  94.6°F  94°F  calm  2 mph  6 mph  0.00"  29%  30%  56°F  57°F  30.04"
Sat 12:00 PM  91.5°F  91°F  3 mph SE  2 mph  7 mph  0.00"  34%  35%  58°F  58°F  30.07"
Sat 11:00 AM  87.7°F  86°F  calm  1 mph  6 mph  0.00"  42%  42%  61°F  60°F  30.10"
Sat 10:00 AM  84.6°F  82°F  3 mph W  1 mph  6 mph  0.00"  46%  51%  61°F  62°F  30.11"
Sat 09:00 AM  80.1°F  77°F  1 mph SE  1 mph  5 mph  0.00"  56%  63%  63°F  63°F  30.11"

  1. Current weather data. No green row appears if the current weather data is also the high or low for the current day.
  2. High temperature for the current day.
  3. Low temperature for the current day.

The Lake Elsinore, California weather pages are a service of WeatherCurrents. Lake Elsinore is located south of Corona and north of the Temecula Valley, in southwestern Riverside County, California.
Copyright ©Sun Aug 19 20:09:53 PDT 2018  WeatherCurrents. All rights reserved. - Submit questions and comments - Privacy Policy

This page automatically refreshes every 10 minutes.